createdAt,value
2018-08-12T00:03:57.056Z,75.60
2018-08-12T00:09:00.469Z,75.10
2018-08-12T00:14:03.740Z,75.40
2018-08-12T00:19:07.148Z,76.20
2018-08-12T00:24:10.438Z,75.30
2018-08-12T00:29:13.724Z,75.10
2018-08-12T00:34:16.981Z,77.40
2018-08-12T00:39:20.277Z,77.30
2018-08-12T00:44:23.538Z,77.30
2018-08-12T00:49:26.777Z,77.50
2018-08-12T00:54:30.061Z,76.80
2018-08-12T00:59:33.553Z,77.80
2018-08-12T01:04:36.985Z,79.20
2018-08-12T01:09:40.248Z,78.50
2018-08-12T01:14:44.207Z,79.20
2018-08-12T01:19:47.716Z,79.60
2018-08-12T01:24:50.996Z,80.70
2018-08-12T01:29:54.688Z,81.00
2018-08-12T01:34:58.433Z,80.20
2018-08-12T01:40:01.919Z,80.40
2018-08-12T01:45:05.780Z,80.10
2018-08-12T01:50:10.656Z,79.90
2018-08-12T01:55:14.041Z,81.30
2018-08-12T02:00:21.873Z,80.90
2018-08-12T02:05:25.186Z,80.50
2018-08-12T02:10:28.548Z,80.80
2018-08-12T02:15:31.804Z,82.50
2018-08-12T02:20:35.115Z,83.00
2018-08-12T02:25:38.580Z,81.70
2018-08-12T02:30:41.908Z,83.50
2018-08-12T02:35:45.198Z,82.90
2018-08-12T02:40:48.612Z,82.80
2018-08-12T02:45:51.917Z,83.20
2018-08-12T02:50:55.241Z,82.80
2018-08-12T02:55:58.706Z,84.00
2018-08-12T03:01:02.014Z,84.70
2018-08-12T03:06:05.317Z,84.60
2018-08-12T03:11:08.600Z,84.60
2018-08-12T03:16:12.012Z,85.20
2018-08-12T03:21:15.282Z,85.60
2018-08-12T03:26:18.566Z,85.60
2018-08-12T03:31:21.856Z,85.40
2018-08-12T03:36:25.264Z,84.80
2018-08-12T03:41:28.577Z,88.00
2018-08-12T03:46:31.853Z,89.00
2018-08-12T03:51:35.353Z,89.80
2018-08-12T03:56:38.630Z,86.10
2018-08-12T04:01:41.884Z,85.10
2018-08-12T04:06:45.129Z,88.10
2018-08-12T04:11:48.418Z,86.50
2018-08-12T04:16:58.010Z,86.70
2018-08-12T04:22:01.784Z,87.20
2018-08-12T04:27:05.033Z,86.80
2018-08-12T04:32:08.392Z,86.30
2018-08-12T04:37:11.649Z,86.60
2018-08-12T04:47:19.458Z,88.80
2018-08-12T04:52:23.078Z,89.30
2018-08-12T04:57:26.376Z,88.90
2018-08-12T05:02:29.646Z,88.20
2018-08-12T05:07:32.997Z,87.90
2018-08-12T05:12:36.482Z,87.70
2018-08-12T05:17:40.156Z,86.70
2018-08-12T05:32:49.662Z,85.90
2018-08-12T05:37:52.936Z,85.70
2018-08-12T05:42:56.233Z,85.30
2018-08-12T05:47:59.756Z,85.60
2018-08-12T05:53:03.038Z,85.10
2018-08-12T05:58:06.456Z,84.80
2018-08-12T06:03:09.856Z,84.60
2018-08-12T06:08:13.203Z,84.20
2018-08-12T06:13:16.554Z,84.10
2018-08-12T06:18:19.865Z,84.00
2018-08-12T06:23:23.209Z,83.80
2018-08-12T06:28:26.551Z,82.40
2018-08-12T06:38:33.400Z,81.20
2018-08-12T06:43:36.811Z,80.10
2018-08-12T06:48:40.088Z,78.80
2018-08-12T06:53:43.379Z,77.40
2018-08-12T06:58:46.656Z,76.50
2018-08-12T07:03:49.965Z,75.60
2018-08-12T07:08:53.318Z,79.10
2018-08-12T07:13:56.743Z,73.50
2018-08-12T07:19:00.129Z,72.90
2018-08-12T07:24:03.627Z,73.50
2018-08-12T07:29:07.141Z,72.90
2018-08-12T07:34:10.649Z,72.30
2018-08-12T07:39:14.037Z,71.00
2018-08-12T07:44:17.417Z,70.00
2018-08-12T07:49:20.766Z,69.90
2018-08-12T07:54:24.194Z,67.20
2018-08-12T07:59:27.469Z,69.00
2018-08-12T08:04:30.933Z,64.90
2018-08-12T08:09:34.189Z,65.50
2018-08-12T08:14:37.501Z,64.70
2018-08-12T08:19:41.032Z,62.60
2018-08-12T08:24:44.240Z,60.20
2018-08-12T08:29:47.655Z,59.00
2018-08-12T08:34:51.133Z,58.40
2018-08-12T08:39:54.514Z,58.80
2018-08-12T08:44:57.959Z,56.10
2018-08-12T08:50:01.444Z,55.30
2018-08-12T09:00:10.784Z,54.30
2018-08-12T09:05:15.080Z,54.60
2018-08-12T09:10:19.221Z,54.80
2018-08-12T09:15:22.576Z,51.80
2018-08-12T09:20:25.897Z,51.50
2018-08-12T09:25:29.180Z,51.20
2018-08-12T09:35:35.440Z,49.20
2018-08-12T09:40:38.758Z,49.60
2018-08-12T09:45:42.035Z,47.70
2018-08-12T09:50:45.305Z,47.80
2018-08-12T09:55:48.613Z,46.90
2018-08-12T10:00:52.068Z,45.30
2018-08-12T10:05:55.334Z,46.10
2018-08-12T10:10:58.729Z,45.70
2018-08-12T10:16:02.046Z,43.00
2018-08-12T10:21:05.338Z,43.50
2018-08-12T10:26:08.650Z,44.20
2018-08-12T10:31:11.933Z,43.00
2018-08-12T10:36:15.215Z,42.70
2018-08-12T10:41:18.485Z,42.60
2018-08-12T10:46:21.803Z,42.60
2018-08-12T10:51:25.067Z,39.80
2018-08-12T10:56:28.466Z,40.10
2018-08-12T11:01:32.029Z,41.70
2018-08-12T11:06:35.416Z,40.10
2018-08-12T11:16:42.363Z,39.00
2018-08-12T11:21:45.661Z,38.90
2018-08-12T11:26:48.988Z,37.70
2018-08-12T11:31:52.337Z,38.50
2018-08-12T11:36:55.765Z,38.60
2018-08-12T11:41:59.161Z,36.50
2018-08-12T11:47:02.613Z,36.80
2018-08-12T11:52:06.148Z,35.90
2018-08-12T11:57:09.429Z,37.10
2018-08-12T12:02:12.827Z,37.30
2018-08-12T12:07:16.038Z,37.00
2018-08-12T12:12:19.340Z,36.10
2018-08-12T12:17:25.006Z,35.80
2018-08-12T12:22:28.265Z,34.70
2018-08-12T12:27:31.825Z,33.60
2018-08-12T12:32:35.137Z,32.70
2018-08-12T12:37:38.812Z,33.00
2018-08-12T12:42:42.285Z,32.00
2018-08-12T12:47:45.773Z,33.00
2018-08-12T12:52:50.090Z,32.90
2018-08-12T12:57:53.467Z,33.70
2018-08-12T13:02:56.889Z,31.50
2018-08-12T13:08:00.349Z,32.70
2018-08-12T13:13:03.722Z,32.90
2018-08-12T13:18:07.158Z,31.40
2018-08-12T13:23:10.580Z,30.60
2018-08-12T13:28:13.994Z,30.20
2018-08-12T13:33:17.316Z,29.20
2018-08-12T13:38:20.821Z,29.00
2018-08-12T13:43:24.135Z,27.80
2018-08-12T13:48:27.421Z,27.50
2018-08-12T13:53:30.688Z,27.80
2018-08-12T13:58:33.974Z,26.30
2018-08-12T14:08:40.422Z,27.30
2018-08-12T14:13:43.886Z,26.10
2018-08-12T14:18:47.077Z,26.70
2018-08-12T14:23:50.510Z,28.50
2018-08-12T14:28:53.850Z,27.90
2018-08-12T14:33:57.129Z,27.90
2018-08-12T14:39:00.623Z,27.80
2018-08-12T14:44:04.007Z,27.80
2018-08-12T14:49:07.482Z,27.50
2018-08-12T14:54:10.844Z,27.40
2018-08-12T14:59:14.284Z,27.20
2018-08-12T15:04:17.869Z,28.60
2018-08-12T15:09:21.409Z,28.40
2018-08-12T15:14:24.910Z,28.30
2018-08-12T15:19:28.383Z,27.60
2018-08-12T15:24:31.801Z,27.90
2018-08-12T15:29:35.479Z,27.40
2018-08-12T15:34:38.980Z,28.60
2018-08-12T15:39:42.362Z,28.40
2018-08-12T15:44:45.808Z,28.70
2018-08-12T15:49:49.181Z,28.70
2018-08-12T15:54:52.611Z,28.90
2018-08-12T15:59:56.046Z,28.40
2018-08-12T16:04:59.441Z,28.10
2018-08-12T16:10:02.894Z,28.90
2018-08-12T16:15:08.414Z,29.40
2018-08-12T16:20:12.363Z,28.70
2018-08-12T16:30:20.532Z,29.40
2018-08-12T16:35:24.107Z,29.50
2018-08-12T16:40:27.293Z,29.50
2018-08-12T16:45:30.713Z,29.10
2018-08-12T16:50:34.113Z,29.50
2018-08-12T16:55:37.475Z,29.70
2018-08-12T17:00:40.935Z,29.40
2018-08-12T17:05:44.320Z,29.70
2018-08-12T17:10:47.757Z,29.00
2018-08-12T17:15:51.113Z,28.90
2018-08-12T17:20:54.521Z,28.80
2018-08-12T17:25:57.966Z,29.30
2018-08-12T17:31:01.193Z,30.50
2018-08-12T17:36:04.557Z,31.40
2018-08-12T17:41:07.839Z,31.40
2018-08-12T17:46:11.177Z,32.20
2018-08-12T17:51:14.413Z,32.70
2018-08-12T17:56:17.853Z,32.80
2018-08-12T18:01:21.229Z,34.90
2018-08-12T18:06:24.624Z,36.80
2018-08-12T18:11:27.889Z,37.20
2018-08-12T18:16:31.210Z,38.00
2018-08-12T18:21:34.577Z,39.50
2018-08-12T18:26:37.887Z,41.20
2018-08-12T18:31:41.216Z,40.30
2018-08-12T18:36:44.507Z,40.80
2018-08-12T18:41:47.880Z,40.70
2018-08-12T18:46:51.169Z,42.30
2018-08-12T18:51:54.579Z,42.10
2018-08-12T18:56:57.952Z,45.80
2018-08-12T19:02:01.283Z,48.00
2018-08-12T19:07:04.918Z,48.10
2018-08-12T19:12:08.161Z,47.20
2018-08-12T19:17:11.927Z,47.80
2018-08-12T19:22:15.263Z,49.00
2018-08-12T19:27:18.697Z,47.20
2018-08-12T19:32:22.129Z,49.40
2018-08-12T19:37:25.433Z,49.10
2018-08-12T19:42:28.988Z,48.90
2018-08-12T19:47:32.290Z,48.70
2018-08-12T19:52:35.786Z,48.10
2018-08-12T19:57:39.224Z,48.60
2018-08-12T20:02:43.212Z,49.40
2018-08-12T20:07:46.521Z,49.10
2018-08-12T20:12:50.015Z,49.60
2018-08-12T20:17:53.399Z,50.20
2018-08-12T20:22:56.809Z,51.40
2018-08-12T20:28:00.196Z,51.50
2018-08-12T20:33:03.453Z,52.80
2018-08-12T20:38:06.878Z,52.60
2018-08-12T20:43:10.345Z,52.80
2018-08-12T20:48:13.708Z,54.40
2018-08-12T20:53:17.125Z,53.70
2018-08-12T20:58:20.577Z,53.10
2018-08-12T21:03:24.051Z,54.80
2018-08-12T21:08:27.364Z,54.50
2018-08-12T21:13:30.941Z,54.70
2018-08-12T21:18:34.725Z,55.70
2018-08-12T21:23:38.234Z,56.30
2018-08-12T21:28:41.593Z,57.30
2018-08-12T21:33:45.079Z,58.10
2018-08-12T21:38:48.468Z,59.50
2018-08-12T21:43:51.813Z,57.60
2018-08-12T21:48:55.261Z,59.70
2018-08-12T21:53:58.564Z,59.50
2018-08-12T21:59:01.902Z,59.50
2018-08-12T22:04:05.217Z,59.10
2018-08-12T22:09:09.981Z,59.50
2018-08-12T22:14:13.369Z,59.80
2018-08-12T22:19:16.655Z,60.10
2018-08-12T22:24:19.943Z,60.00
2018-08-12T22:29:23.238Z,59.90
2018-08-12T22:34:26.508Z,59.70
2018-08-12T22:39:29.896Z,60.40
2018-08-12T22:44:33.198Z,60.10
2018-08-12T22:49:36.509Z,61.00
2018-08-12T22:54:39.946Z,61.40
2018-08-12T22:59:43.241Z,62.10
2018-08-12T23:04:46.541Z,62.00
2018-08-12T23:09:49.882Z,63.00
2018-08-12T23:14:55.132Z,62.80
2018-08-12T23:19:58.584Z,63.70
2018-08-12T23:25:01.881Z,63.30
2018-08-12T23:30:05.929Z,62.60
2018-08-12T23:35:09.457Z,65.20
2018-08-12T23:40:12.741Z,63.90
2018-08-12T23:45:16.015Z,62.40
2018-08-12T23:50:19.504Z,64.40
2018-08-12T23:55:22.797Z,62.00
